EDDL/DUS METAR and TAF weather

Enter ICAO airport designator
Station Type Date Time Source
EDDL METAR 2023/01/30 10:50 UTC NOAA

EDDL 301050Z AUTO 28014KT 9999 BKN028 OVC035 07/02 Q1017 TEMPO 28015G25KT


Station Type Date Time Source
EDDL Decoded METAR 2023/01/30 10:50 UTC NOAA

Duesseldorf, Germany (EDDL) 51-18N 006-46E 41M
Jan 30, 2023 - 05:50 AM EST / 2023.01.30 1050 UTC
Wind: from the W (280 degrees) at 16 MPH (14 KT):0
Visibility: greater than 7 mile(s):0
Sky conditions: overcast
Temperature: 44 F (7 C)
Dew Point: 35 F (2 C)
Relative Humidity: 70%
Pressure (altimeter): 30.03 in. Hg (1017 hPa)
ob: EDDL 301050Z AUTO 28014KT 9999 BKN028 OVC035 07/02 Q1017 TEMPO 28015G25KT
cycle: 11

Station Type Date Time Source
EDDL TAF 2023/01/30 06:28 UTC NOAA

TAF EDDL 300500Z 3006/3112 27015G25KT 9999 BKN008
TEMPO 3006/3007 4000 -DZRA
BECMG 3006/3009 SCT025
BECMG 3016/3018 28008KT
BECMG 3101/3104 22008KT
BECMG 3108/3111 23015G25KT

Example: see airport list